sensor_id;sensor_type;location;lat;lon;timestamp;P1;durP1;ratioP1;P2;durP2;ratioP2
50803;SDS011;37205;51.434;6.756;2022-08-01T00:01:11;17.38;;;15.68;;
50803;SDS011;37205;51.434;6.756;2022-08-01T00:03:37;19.08;;;15.95;;
50803;SDS011;37205;51.434;6.756;2022-08-01T00:06:03;18.75;;;15.50;;
50803;SDS011;37205;51.434;6.756;2022-08-01T00:08:28;18.33;;;16.00;;
50803;SDS011;37205;51.434;6.756;2022-08-01T00:10:54;17.30;;;15.15;;
50803;SDS011;37205;51.434;6.756;2022-08-01T00:13:19;17.63;;;15.05;;
50803;SDS011;37205;51.434;6.756;2022-08-01T00:15:45;18.02;;;15.57;;
50803;SDS011;37205;51.434;6.756;2022-08-01T00:18:11;17.38;;;15.57;;
50803;SDS011;37205;51.434;6.756;2022-08-01T00:20:36;17.92;;;14.98;;
50803;SDS011;37205;51.434;6.756;2022-08-01T00:23:02;17.75;;;15.90;;
50803;SDS011;37205;51.434;6.756;2022-08-01T00:25:28;18.40;;;15.60;;
50803;SDS011;37205;51.434;6.756;2022-08-01T00:27:54;18.00;;;16.08;;
50803;SDS011;37205;51.434;6.756;2022-08-01T00:30:19;18.55;;;16.15;;
50803;SDS011;37205;51.434;6.756;2022-08-01T00:32:45;19.73;;;15.77;;
50803;SDS011;37205;51.434;6.756;2022-08-01T00:35:11;19.63;;;15.35;;
50803;SDS011;37205;51.434;6.756;2022-08-01T00:37:36;19.13;;;16.08;;
50803;SDS011;37205;51.434;6.756;2022-08-01T00:40:02;18.50;;;16.55;;
50803;SDS011;37205;51.434;6.756;2022-08-01T00:42:28;21.55;;;17.90;;
50803;SDS011;37205;51.434;6.756;2022-08-01T00:44:53;18.52;;;16.52;;
50803;SDS011;37205;51.434;6.756;2022-08-01T00:47:19;18.70;;;16.60;;
50803;SDS011;37205;51.434;6.756;2022-08-01T00:49:45;20.77;;;17.60;;
50803;SDS011;37205;51.434;6.756;2022-08-01T00:52:10;19.25;;;16.05;;
50803;SDS011;37205;51.434;6.756;2022-08-01T00:54:36;18.98;;;15.48;;
50803;SDS011;37205;51.434;6.756;2022-08-01T00:57:02;20.48;;;17.02;;
50803;SDS011;37205;51.434;6.756;2022-08-01T00:59:28;21.15;;;17.70;;
50803;SDS011;37205;51.434;6.756;2022-08-01T01:01:55;20.35;;;16.05;;
50803;SDS011;37205;51.434;6.756;2022-08-01T01:04:20;20.20;;;15.40;;
50803;SDS011;37205;51.434;6.756;2022-08-01T01:14:29;21.52;;;15.75;;
50803;SDS011;37205;51.434;6.756;2022-08-01T01:17:03;19.27;;;15.10;;
50803;SDS011;37205;51.434;6.756;2022-08-01T01:19:33;18.67;;;15.98;;
50803;SDS011;37205;51.434;6.756;2022-08-01T01:30:37;22.40;;;16.67;;
50803;SDS011;37205;51.434;6.756;2022-08-01T01:33:06;20.67;;;16.05;;
50803;SDS011;37205;51.434;6.756;2022-08-01T01:35:35;23.42;;;17.10;;
50803;SDS011;37205;51.434;6.756;2022-08-01T01:38:10;24.00;;;17.73;;
50803;SDS011;37205;51.434;6.756;2022-08-01T01:40:42;23.48;;;17.58;;
50803;SDS011;37205;51.434;6.756;2022-08-01T01:43:09;22.42;;;16.90;;
50803;SDS011;37205;51.434;6.756;2022-08-01T01:45:36;21.10;;;17.70;;
50803;SDS011;37205;51.434;6.756;2022-08-01T01:48:04;20.83;;;18.45;;
50803;SDS011;37205;51.434;6.756;2022-08-01T01:50:31;25.42;;;19.33;;
50803;SDS011;37205;51.434;6.756;2022-08-01T01:52:57;23.58;;;18.90;;
50803;SDS011;37205;51.434;6.756;2022-08-01T01:55:24;28.25;;;19.00;;
50803;SDS011;37205;51.434;6.756;2022-08-01T01:57:51;24.02;;;18.60;;
50803;SDS011;37205;51.434;6.756;2022-08-01T02:00:19;25.40;;;17.23;;
50803;SDS011;37205;51.434;6.756;2022-08-01T02:02:44;23.75;;;17.90;;
50803;SDS011;37205;51.434;6.756;2022-08-01T02:05:11;27.38;;;18.80;;
50803;SDS011;37205;51.434;6.756;2022-08-01T02:07:37;23.33;;;18.33;;
50803;SDS011;37205;51.434;6.756;2022-08-01T02:10:04;24.58;;;17.77;;
50803;SDS011;37205;51.434;6.756;2022-08-01T02:12:32;25.27;;;18.48;;
50803;SDS011;37205;51.434;6.756;2022-08-01T02:15:02;28.88;;;20.73;;
50803;SDS011;37205;51.434;6.756;2022-08-01T02:17:29;26.17;;;19.45;;
50803;SDS011;37205;51.434;6.756;2022-08-01T02:19:55;28.42;;;20.00;;
50803;SDS011;37205;51.434;6.756;2022-08-01T02:24:54;27.27;;;20.42;;
50803;SDS011;37205;51.434;6.756;2022-08-01T02:27:28;27.92;;;22.38;;
50803;SDS011;37205;51.434;6.756;2022-08-01T02:30:03;28.05;;;21.98;;
50803;SDS011;37205;51.434;6.756;2022-08-01T02:32:34;30.00;;;20.10;;
50803;SDS011;37205;51.434;6.756;2022-08-01T02:35:03;25.77;;;20.43;;
50803;SDS011;37205;51.434;6.756;2022-08-01T02:37:33;29.42;;;21.52;;
50803;SDS011;37205;51.434;6.756;2022-08-01T02:40:01;26.25;;;20.35;;
50803;SDS011;37205;51.434;6.756;2022-08-01T02:42:28;27.65;;;20.83;;
50803;SDS011;37205;51.434;6.756;2022-08-01T02:44:55;28.33;;;21.48;;
50803;SDS011;37205;51.434;6.756;2022-08-01T02:47:22;29.05;;;21.13;;
50803;SDS011;37205;51.434;6.756;2022-08-01T02:49:50;31.83;;;24.30;;
50803;SDS011;37205;51.434;6.756;2022-08-01T02:52:19;33.25;;;24.95;;
50803;SDS011;37205;51.434;6.756;2022-08-01T02:54:50;37.42;;;29.70;;
50803;SDS011;37205;51.434;6.756;2022-08-01T02:57:19;37.15;;;28.27;;
50803;SDS011;37205;51.434;6.756;2022-08-01T02:59:46;43.25;;;31.55;;
50803;SDS011;37205;51.434;6.756;2022-08-01T03:02:14;39.67;;;28.80;;
50803;SDS011;37205;51.434;6.756;2022-08-01T03:04:42;35.60;;;24.90;;
50803;SDS011;37205;51.434;6.756;2022-08-01T03:07:09;37.13;;;26.90;;
50803;SDS011;37205;51.434;6.756;2022-08-01T03:09:39;38.38;;;27.02;;
50803;SDS011;37205;51.434;6.756;2022-08-01T03:12:14;40.53;;;27.42;;
50803;SDS011;37205;51.434;6.756;2022-08-01T03:14:44;35.63;;;24.73;;
50803;SDS011;37205;51.434;6.756;2022-08-01T03:17:11;37.63;;;26.25;;
50803;SDS011;37205;51.434;6.756;2022-08-01T03:19:38;45.40;;;34.50;;
50803;SDS011;37205;51.434;6.756;2022-08-01T03:22:07;42.17;;;32.53;;
50803;SDS011;37205;51.434;6.756;2022-08-01T03:24:35;44.92;;;33.67;;
50803;SDS011;37205;51.434;6.756;2022-08-01T03:27:03;46.15;;;32.03;;
50803;SDS011;37205;51.434;6.756;2022-08-01T03:29:30;42.78;;;30.42;;
50803;SDS011;37205;51.434;6.756;2022-08-01T03:31:58;45.25;;;30.73;;
50803;SDS011;37205;51.434;6.756;2022-08-01T03:34:25;41.38;;;29.13;;
50803;SDS011;37205;51.434;6.756;2022-08-01T03:39:49;41.40;;;27.52;;
50803;SDS011;37205;51.434;6.756;2022-08-01T03:42:37;34.72;;;26.33;;
50803;SDS011;37205;51.434;6.756;2022-08-01T03:45:09;39.72;;;27.63;;
50803;SDS011;37205;51.434;6.756;2022-08-01T03:47:38;40.80;;;27.70;;
50803;SDS011;37205;51.434;6.756;2022-08-01T03:50:09;40.33;;;28.05;;
50803;SDS011;37205;51.434;6.756;2022-08-01T03:52:37;37.75;;;25.88;;
50803;SDS011;37205;51.434;6.756;2022-08-01T03:55:05;39.72;;;28.60;;
50803;SDS011;37205;51.434;6.756;2022-08-01T03:57:32;33.15;;;26.55;;
50803;SDS011;37205;51.434;6.756;2022-08-01T03:59:58;38.03;;;26.80;;
50803;SDS011;37205;51.434;6.756;2022-08-01T04:02:25;37.47;;;26.50;;
50803;SDS011;37205;51.434;6.756;2022-08-01T04:04:52;36.95;;;26.88;;
50803;SDS011;37205;51.434;6.756;2022-08-01T04:07:25;34.80;;;26.42;;
50803;SDS011;37205;51.434;6.756;2022-08-01T04:09:55;38.60;;;28.65;;
50803;SDS011;37205;51.434;6.756;2022-08-01T04:12:21;34.70;;;25.77;;
50803;SDS011;37205;51.434;6.756;2022-08-01T04:14:47;35.75;;;27.00;;
50803;SDS011;37205;51.434;6.756;2022-08-01T04:17:16;40.53;;;26.27;;
50803;SDS011;37205;51.434;6.756;2022-08-01T04:19:41;39.85;;;26.52;;
50803;SDS011;37205;51.434;6.756;2022-08-01T04:22:09;37.50;;;25.40;;
50803;SDS011;37205;51.434;6.756;2022-08-01T04:24:36;40.22;;;26.60;;
50803;SDS011;37205;51.434;6.756;2022-08-01T04:27:06;33.85;;;24.70;;
50803;SDS011;37205;51.434;6.756;2022-08-01T04:29:36;41.38;;;29.27;;
50803;SDS011;37205;51.434;6.756;2022-08-01T04:32:03;35.20;;;26.10;;
50803;SDS011;37205;51.434;6.756;2022-08-01T04:34:30;39.83;;;27.30;;
50803;SDS011;37205;51.434;6.756;2022-08-01T04:36:58;36.17;;;27.40;;
50803;SDS011;37205;51.434;6.756;2022-08-01T04:39:25;32.25;;;25.10;;
50803;SDS011;37205;51.434;6.756;2022-08-01T04:41:53;37.20;;;25.50;;
50803;SDS011;37205;51.434;6.756;2022-08-01T04:44:23;37.45;;;25.88;;
50803;SDS011;37205;51.434;6.756;2022-08-01T04:46:50;36.05;;;24.48;;
50803;SDS011;37205;51.434;6.756;2022-08-01T04:49:19;35.35;;;24.23;;
50803;SDS011;37205;51.434;6.756;2022-08-01T04:51:53;33.00;;;23.98;;
50803;SDS011;37205;51.434;6.756;2022-08-01T04:54:25;32.60;;;26.02;;
50803;SDS011;37205;51.434;6.756;2022-08-01T04:56:54;34.05;;;23.67;;
50803;SDS011;37205;51.434;6.756;2022-08-01T04:59:24;29.10;;;21.73;;
50803;SDS011;37205;51.434;6.756;2022-08-01T05:04:33;32.80;;;24.17;;
50803;SDS011;37205;51.434;6.756;2022-08-01T05:06:59;33.35;;;22.20;;
50803;SDS011;37205;51.434;6.756;2022-08-01T05:09:25;34.75;;;23.45;;
50803;SDS011;37205;51.434;6.756;2022-08-01T05:11:51;29.98;;;24.63;;
50803;SDS011;37205;51.434;6.756;2022-08-01T05:14:17;36.88;;;28.05;;
50803;SDS011;37205;51.434;6.756;2022-08-01T05:16:43;51.22;;;33.92;;
50803;SDS011;37205;51.434;6.756;2022-08-01T05:19:10;49.90;;;33.97;;
50803;SDS011;37205;51.434;6.756;2022-08-01T05:21:36;35.60;;;28.85;;
50803;SDS011;37205;51.434;6.756;2022-08-01T05:24:02;37.90;;;30.42;;
50803;SDS011;37205;51.434;6.756;2022-08-01T05:26:29;38.63;;;30.95;;
50803;SDS011;37205;51.434;6.756;2022-08-01T05:28:54;36.85;;;25.98;;
50803;SDS011;37205;51.434;6.756;2022-08-01T05:31:20;34.92;;;25.40;;
50803;SDS011;37205;51.434;6.756;2022-08-01T05:33:45;32.30;;;23.90;;
50803;SDS011;37205;51.434;6.756;2022-08-01T05:36:11;29.35;;;22.38;;
50803;SDS011;37205;51.434;6.756;2022-08-01T05:38:36;28.08;;;21.02;;
50803;SDS011;37205;51.434;6.756;2022-08-01T05:41:02;28.27;;;21.15;;
50803;SDS011;37205;51.434;6.756;2022-08-01T05:43:28;27.33;;;21.13;;
50803;SDS011;37205;51.434;6.756;2022-08-01T05:45:53;24.00;;;20.58;;
50803;SDS011;37205;51.434;6.756;2022-08-01T05:48:19;28.23;;;20.50;;
50803;SDS011;37205;51.434;6.756;2022-08-01T05:50:44;26.73;;;21.35;;
50803;SDS011;37205;51.434;6.756;2022-08-01T05:53:12;26.20;;;20.27;;
50803;SDS011;37205;51.434;6.756;2022-08-01T05:55:38;25.58;;;20.08;;
50803;SDS011;37205;51.434;6.756;2022-08-01T05:58:03;28.13;;;20.83;;
50803;SDS011;37205;51.434;6.756;2022-08-01T06:00:29;25.25;;;19.60;;
50803;SDS011;37205;51.434;6.756;2022-08-01T06:02:54;24.92;;;19.30;;
50803;SDS011;37205;51.434;6.756;2022-08-01T06:05:20;26.67;;;19.73;;
50803;SDS011;37205;51.434;6.756;2022-08-01T06:07:46;29.02;;;20.80;;
50803;SDS011;37205;51.434;6.756;2022-08-01T06:10:11;27.63;;;19.90;;
50803;SDS011;37205;51.434;6.756;2022-08-01T06:12:37;25.85;;;19.23;;
50803;SDS011;37205;51.434;6.756;2022-08-01T06:15:04;27.50;;;19.98;;
50803;SDS011;37205;51.434;6.756;2022-08-01T06:17:31;26.00;;;19.52;;
50803;SDS011;37205;51.434;6.756;2022-08-01T06:19:56;28.90;;;19.42;;
50803;SDS011;37205;51.434;6.756;2022-08-01T06:22:22;23.08;;;17.67;;
50803;SDS011;37205;51.434;6.756;2022-08-01T06:24:48;44.88;;;30.40;;
50803;SDS011;37205;51.434;6.756;2022-08-01T06:27:13;39.17;;;29.67;;
50803;SDS011;37205;51.434;6.756;2022-08-01T06:29:39;37.58;;;27.73;;
50803;SDS011;37205;51.434;6.756;2022-08-01T06:32:04;29.65;;;22.38;;
50803;SDS011;37205;51.434;6.756;2022-08-01T06:34:31;23.33;;;18.88;;
50803;SDS011;37205;51.434;6.756;2022-08-01T06:36:57;24.02;;;18.23;;
50803;SDS011;37205;51.434;6.756;2022-08-01T06:39:22;20.25;;;15.23;;
50803;SDS011;37205;51.434;6.756;2022-08-01T06:41:48;18.90;;;14.88;;
50803;SDS011;37205;51.434;6.756;2022-08-01T06:44:13;20.48;;;16.15;;
50803;SDS011;37205;51.434;6.756;2022-08-01T06:46:39;21.98;;;16.05;;
50803;SDS011;37205;51.434;6.756;2022-08-01T06:49:04;22.85;;;17.05;;
50803;SDS011;37205;51.434;6.756;2022-08-01T06:51:30;15.77;;;12.27;;
50803;SDS011;37205;51.434;6.756;2022-08-01T06:53:59;17.63;;;12.90;;
50803;SDS011;37205;51.434;6.756;2022-08-01T06:56:24;16.33;;;12.95;;
50803;SDS011;37205;51.434;6.756;2022-08-01T06:58:53;17.00;;;13.25;;
50803;SDS011;37205;51.434;6.756;2022-08-01T07:01:24;16.63;;;11.60;;
50803;SDS011;37205;51.434;6.756;2022-08-01T07:03:49;15.57;;;11.38;;
50803;SDS011;37205;51.434;6.756;2022-08-01T07:06:15;15.05;;;11.13;;
50803;SDS011;37205;51.434;6.756;2022-08-01T07:08:40;15.65;;;9.68;;
50803;SDS011;37205;51.434;6.756;2022-08-01T07:11:06;16.25;;;11.00;;
50803;SDS011;37205;51.434;6.756;2022-08-01T07:13:31;11.55;;;8.23;;
50803;SDS011;37205;51.434;6.756;2022-08-01T07:15:58;11.73;;;8.35;;
50803;SDS011;37205;51.434;6.756;2022-08-01T07:18:23;10.43;;;7.95;;
50803;SDS011;37205;51.434;6.756;2022-08-01T07:20:49;10.38;;;7.18;;
50803;SDS011;37205;51.434;6.756;2022-08-01T07:23:15;10.35;;;7.82;;
50803;SDS011;37205;51.434;6.756;2022-08-01T07:25:41;10.95;;;7.80;;
50803;SDS011;37205;51.434;6.756;2022-08-01T07:28:07;15.65;;;10.32;;
50803;SDS011;37205;51.434;6.756;2022-08-01T07:30:33;15.07;;;10.07;;
50803;SDS011;37205;51.434;6.756;2022-08-01T07:32:59;13.55;;;10.30;;
50803;SDS011;37205;51.434;6.756;2022-08-01T07:35:24;7.18;;;5.60;;
50803;SDS011;37205;51.434;6.756;2022-08-01T07:37:50;7.82;;;4.95;;
50803;SDS011;37205;51.434;6.756;2022-08-01T07:40:18;7.78;;;4.50;;
50803;SDS011;37205;51.434;6.756;2022-08-01T07:42:44;6.57;;;4.53;;
50803;SDS011;37205;51.434;6.756;2022-08-01T07:45:11;6.90;;;5.25;;
50803;SDS011;37205;51.434;6.756;2022-08-01T07:47:37;7.50;;;5.97;;
50803;SDS011;37205;51.434;6.756;2022-08-01T07:50:03;9.38;;;6.95;;
50803;SDS011;37205;51.434;6.756;2022-08-01T07:52:30;13.68;;;6.88;;
50803;SDS011;37205;51.434;6.756;2022-08-01T07:54:56;10.30;;;8.15;;
50803;SDS011;37205;51.434;6.756;2022-08-01T07:57:22;11.35;;;7.90;;
50803;SDS011;37205;51.434;6.756;2022-08-01T07:59:48;10.40;;;7.85;;
50803;SDS011;37205;51.434;6.756;2022-08-01T08:02:14;9.35;;;7.60;;
50803;SDS011;37205;51.434;6.756;2022-08-01T08:04:40;11.27;;;6.90;;
50803;SDS011;37205;51.434;6.756;2022-08-01T08:07:06;10.93;;;7.15;;
50803;SDS011;37205;51.434;6.756;2022-08-01T08:09:31;9.13;;;7.18;;
50803;SDS011;37205;51.434;6.756;2022-08-01T08:11:57;9.52;;;7.10;;
50803;SDS011;37205;51.434;6.756;2022-08-01T08:14:23;9.32;;;6.97;;
50803;SDS011;37205;51.434;6.756;2022-08-01T08:16:49;8.23;;;4.40;;
50803;SDS011;37205;51.434;6.756;2022-08-01T08:19:15;5.82;;;3.40;;
50803;SDS011;37205;51.434;6.756;2022-08-01T08:21:41;6.20;;;3.58;;
50803;SDS011;37205;51.434;6.756;2022-08-01T08:24:07;6.57;;;3.42;;
50803;SDS011;37205;51.434;6.756;2022-08-01T08:26:46;6.30;;;4.13;;
50803;SDS011;37205;51.434;6.756;2022-08-01T08:29:13;5.40;;;3.85;;
50803;SDS011;37205;51.434;6.756;2022-08-01T08:31:39;4.55;;;3.28;;
50803;SDS011;37205;51.434;6.756;2022-08-01T08:34:05;3.70;;;2.78;;
50803;SDS011;37205;51.434;6.756;2022-08-01T08:36:30;4.88;;;3.15;;
50803;SDS011;37205;51.434;6.756;2022-08-01T08:38:56;4.53;;;2.95;;
50803;SDS011;37205;51.434;6.756;2022-08-01T08:41:22;4.32;;;2.60;;
50803;SDS011;37205;51.434;6.756;2022-08-01T08:43:48;4.28;;;2.72;;
50803;SDS011;37205;51.434;6.756;2022-08-01T08:46:14;3.50;;;2.45;;
50803;SDS011;37205;51.434;6.756;2022-08-01T08:48:41;4.15;;;2.30;;
50803;SDS011;37205;51.434;6.756;2022-08-01T08:51:07;3.22;;;2.10;;
50803;SDS011;37205;51.434;6.756;2022-08-01T08:53:40;3.78;;;2.60;;
50803;SDS011;37205;51.434;6.756;2022-08-01T08:56:08;4.93;;;2.47;;
50803;SDS011;37205;51.434;6.756;2022-08-01T08:58:38;4.22;;;3.00;;
50803;SDS011;37205;51.434;6.756;2022-08-01T09:01:05;3.85;;;2.75;;
50803;SDS011;37205;51.434;6.756;2022-08-01T09:03:33;4.55;;;2.70;;
50803;SDS011;37205;51.434;6.756;2022-08-01T09:05:59;4.22;;;2.70;;
50803;SDS011;37205;51.434;6.756;2022-08-01T09:08:25;4.88;;;3.08;;
50803;SDS011;37205;51.434;6.756;2022-08-01T09:10:51;6.35;;;4.28;;
50803;SDS011;37205;51.434;6.756;2022-08-01T09:13:17;4.20;;;3.33;;
50803;SDS011;37205;51.434;6.756;2022-08-01T09:15:52;5.43;;;3.03;;
50803;SDS011;37205;51.434;6.756;2022-08-01T09:18:26;5.30;;;3.10;;
50803;SDS011;37205;51.434;6.756;2022-08-01T09:21:15;4.88;;;3.42;;
50803;SDS011;37205;51.434;6.756;2022-08-01T09:26:12;4.32;;;3.00;;
50803;SDS011;37205;51.434;6.756;2022-08-01T09:28:41;7.47;;;4.10;;
50803;SDS011;37205;51.434;6.756;2022-08-01T09:31:08;6.90;;;3.75;;
50803;SDS011;37205;51.434;6.756;2022-08-01T09:36:20;4.40;;;3.15;;
50803;SDS011;37205;51.434;6.756;2022-08-01T09:38:48;4.50;;;3.17;;
50803;SDS011;37205;51.434;6.756;2022-08-01T09:41:14;4.80;;;3.30;;
50803;SDS011;37205;51.434;6.756;2022-08-01T09:43:39;4.28;;;2.60;;
50803;SDS011;37205;51.434;6.756;2022-08-01T09:46:13;4.35;;;2.50;;
50803;SDS011;37205;51.434;6.756;2022-08-01T09:48:54;3.70;;;2.78;;
50803;SDS011;37205;51.434;6.756;2022-08-01T09:51:36;5.10;;;2.95;;
50803;SDS011;37205;51.434;6.756;2022-08-01T09:54:04;6.05;;;2.90;;
50803;SDS011;37205;51.434;6.756;2022-08-01T09:56:37;4.05;;;2.90;;
50803;SDS011;37205;51.434;6.756;2022-08-01T09:59:04;4.18;;;3.33;;
50803;SDS011;37205;51.434;6.756;2022-08-01T10:04:14;5.22;;;4.40;;
50803;SDS011;37205;51.434;6.756;2022-08-01T10:06:41;5.30;;;3.63;;
50803;SDS011;37205;51.434;6.756;2022-08-01T10:09:09;4.40;;;3.20;;
50803;SDS011;37205;51.434;6.756;2022-08-01T10:11:37;3.83;;;3.00;;
50803;SDS011;37205;51.434;6.756;2022-08-01T10:14:04;4.35;;;2.90;;
50803;SDS011;37205;51.434;6.756;2022-08-01T10:16:30;3.60;;;2.83;;
50803;SDS011;37205;51.434;6.756;2022-08-01T10:18:58;3.78;;;2.83;;
50803;SDS011;37205;51.434;6.756;2022-08-01T10:21:25;4.32;;;2.80;;
50803;SDS011;37205;51.434;6.756;2022-08-01T10:23:52;3.47;;;2.55;;
50803;SDS011;37205;51.434;6.756;2022-08-01T10:26:21;3.75;;;2.60;;
50803;SDS011;37205;51.434;6.756;2022-08-01T10:28:50;3.47;;;2.17;;
50803;SDS011;37205;51.434;6.756;2022-08-01T10:31:16;3.50;;;2.20;;
50803;SDS011;37205;51.434;6.756;2022-08-01T10:33:44;4.00;;;2.47;;
50803;SDS011;37205;51.434;6.756;2022-08-01T10:36:10;5.18;;;2.88;;
50803;SDS011;37205;51.434;6.756;2022-08-01T10:38:36;4.00;;;2.30;;
50803;SDS011;37205;51.434;6.756;2022-08-01T10:41:02;3.30;;;2.63;;
50803;SDS011;37205;51.434;6.756;2022-08-01T10:43:29;4.72;;;2.58;;
50803;SDS011;37205;51.434;6.756;2022-08-01T10:45:54;4.22;;;2.40;;
50803;SDS011;37205;51.434;6.756;2022-08-01T10:50:58;3.47;;;2.55;;
50803;SDS011;37205;51.434;6.756;2022-08-01T10:53:26;3.60;;;2.33;;
50803;SDS011;37205;51.434;6.756;2022-08-01T10:58:42;5.22;;;2.55;;
50803;SDS011;37205;51.434;6.756;2022-08-01T11:14:23;5.05;;;2.70;;
50803;SDS011;37205;51.434;6.756;2022-08-01T11:16:48;4.97;;;2.45;;
50803;SDS011;37205;51.434;6.756;2022-08-01T11:19:14;4.43;;;2.20;;
50803;SDS011;37205;51.434;6.756;2022-08-01T11:27:43;4.15;;;2.63;;
50803;SDS011;37205;51.434;6.756;2022-08-01T11:30:23;4.20;;;2.20;;
50803;SDS011;37205;51.434;6.756;2022-08-01T11:32:51;5.38;;;2.67;;
50803;SDS011;37205;51.434;6.756;2022-08-01T11:35:19;5.00;;;2.33;;
50803;SDS011;37205;51.434;6.756;2022-08-01T11:37:48;5.13;;;1.80;;
50803;SDS011;37205;51.434;6.756;2022-08-01T11:42:40;3.85;;;1.77;;
50803;SDS011;37205;51.434;6.756;2022-08-01T11:45:06;3.17;;;1.83;;
50803;SDS011;37205;51.434;6.756;2022-08-01T11:47:49;5.43;;;1.95;;
50803;SDS011;37205;51.434;6.756;2022-08-01T11:50:37;3.35;;;1.75;;
50803;SDS011;37205;51.434;6.756;2022-08-01T11:53:05;3.85;;;2.50;;
50803;SDS011;37205;51.434;6.756;2022-08-01T11:55:32;4.55;;;2.38;;
50803;SDS011;37205;51.434;6.756;2022-08-01T11:58:04;3.13;;;1.90;;
50803;SDS011;37205;51.434;6.756;2022-08-01T12:00:31;2.90;;;1.88;;
50803;SDS011;37205;51.434;6.756;2022-08-01T12:03:02;3.38;;;1.95;;
50803;SDS011;37205;51.434;6.756;2022-08-01T12:05:31;3.03;;;1.92;;
50803;SDS011;37205;51.434;6.756;2022-08-01T12:08:00;3.10;;;2.10;;
50803;SDS011;37205;51.434;6.756;2022-08-01T12:10:27;4.00;;;2.00;;
50803;SDS011;37205;51.434;6.756;2022-08-01T12:13:01;2.58;;;1.70;;
50803;SDS011;37205;51.434;6.756;2022-08-01T12:15:30;4.05;;;2.25;;
50803;SDS011;37205;51.434;6.756;2022-08-01T12:18:00;4.00;;;2.00;;
50803;SDS011;37205;51.434;6.756;2022-08-01T12:20:30;3.28;;;2.00;;
50803;SDS011;37205;51.434;6.756;2022-08-01T12:22:59;3.60;;;1.95;;
50803;SDS011;37205;51.434;6.756;2022-08-01T12:25:25;3.15;;;2.15;;
50803;SDS011;37205;51.434;6.756;2022-08-01T12:27:51;3.58;;;2.22;;
50803;SDS011;37205;51.434;6.756;2022-08-01T12:30:18;4.38;;;2.03;;
50803;SDS011;37205;51.434;6.756;2022-08-01T12:32:47;3.28;;;2.30;;
50803;SDS011;37205;51.434;6.756;2022-08-01T12:35:18;3.30;;;1.70;;
50803;SDS011;37205;51.434;6.756;2022-08-01T12:37:48;3.08;;;2.17;;
50803;SDS011;37205;51.434;6.756;2022-08-01T12:40:17;2.92;;;1.80;;
50803;SDS011;37205;51.434;6.756;2022-08-01T12:42:45;4.50;;;1.88;;
50803;SDS011;37205;51.434;6.756;2022-08-01T12:45:13;3.28;;;1.75;;
50803;SDS011;37205;51.434;6.756;2022-08-01T12:47:44;3.65;;;2.35;;
50803;SDS011;37205;51.434;6.756;2022-08-01T12:50:12;4.82;;;2.30;;
50803;SDS011;37205;51.434;6.756;2022-08-01T12:52:40;5.45;;;2.22;;
50803;SDS011;37205;51.434;6.756;2022-08-01T12:57:36;3.33;;;1.70;;
50803;SDS011;37205;51.434;6.756;2022-08-01T13:00:07;2.67;;;1.50;;
50803;SDS011;37205;51.434;6.756;2022-08-01T13:02:34;3.63;;;1.60;;
50803;SDS011;37205;51.434;6.756;2022-08-01T13:05:00;4.32;;;2.20;;
50803;SDS011;37205;51.434;6.756;2022-08-01T13:10:14;5.82;;;2.20;;
50803;SDS011;37205;51.434;6.756;2022-08-01T13:12:53;3.00;;;1.95;;
50803;SDS011;37205;51.434;6.756;2022-08-01T13:17:49;4.45;;;1.77;;
50803;SDS011;37205;51.434;6.756;2022-08-01T13:20:34;3.13;;;1.55;;
50803;SDS011;37205;51.434;6.756;2022-08-01T13:23:10;3.72;;;1.73;;
50803;SDS011;37205;51.434;6.756;2022-08-01T13:26:13;3.38;;;1.80;;
50803;SDS011;37205;51.434;6.756;2022-08-01T13:28:32;2.47;;;1.60;;
50803;SDS011;37205;51.434;6.756;2022-08-01T13:31:03;2.88;;;1.52;;
50803;SDS011;37205;51.434;6.756;2022-08-01T13:33:45;3.28;;;1.83;;
50803;SDS011;37205;51.434;6.756;2022-08-01T13:36:12;3.50;;;2.22;;
50803;SDS011;37205;51.434;6.756;2022-08-01T13:38:39;3.88;;;1.98;;
50803;SDS011;37205;51.434;6.756;2022-08-01T13:41:24;2.58;;;1.60;;
50803;SDS011;37205;51.434;6.756;2022-08-01T13:43:50;3.28;;;1.75;;
50803;SDS011;37205;51.434;6.756;2022-08-01T13:46:15;3.00;;;1.65;;
50803;SDS011;37205;51.434;6.756;2022-08-01T13:48:41;4.03;;;1.83;;
50803;SDS011;37205;51.434;6.756;2022-08-01T13:51:07;3.63;;;1.83;;
50803;SDS011;37205;51.434;6.756;2022-08-01T13:53:32;3.08;;;1.92;;
50803;SDS011;37205;51.434;6.756;2022-08-01T13:55:58;3.40;;;2.40;;
50803;SDS011;37205;51.434;6.756;2022-08-01T13:58:23;3.60;;;2.00;;
50803;SDS011;37205;51.434;6.756;2022-08-01T14:00:49;3.60;;;1.90;;
50803;SDS011;37205;51.434;6.756;2022-08-01T14:03:15;5.18;;;2.30;;
50803;SDS011;37205;51.434;6.756;2022-08-01T14:05:41;3.40;;;1.90;;
50803;SDS011;37205;51.434;6.756;2022-08-01T14:08:08;4.18;;;2.03;;
50803;SDS011;37205;51.434;6.756;2022-08-01T14:10:34;4.55;;;1.90;;
50803;SDS011;37205;51.434;6.756;2022-08-01T14:13:00;3.70;;;1.88;;
50803;SDS011;37205;51.434;6.756;2022-08-01T14:15:25;2.83;;;1.70;;
50803;SDS011;37205;51.434;6.756;2022-08-01T14:17:51;3.25;;;1.70;;
50803;SDS011;37205;51.434;6.756;2022-08-01T14:20:17;4.43;;;1.83;;
50803;SDS011;37205;51.434;6.756;2022-08-01T14:22:45;4.13;;;2.40;;
50803;SDS011;37205;51.434;6.756;2022-08-01T14:25:11;6.20;;;2.65;;
50803;SDS011;37205;51.434;6.756;2022-08-01T14:27:37;4.88;;;2.25;;
50803;SDS011;37205;51.434;6.756;2022-08-01T14:30:05;4.93;;;2.50;;
50803;SDS011;37205;51.434;6.756;2022-08-01T14:32:31;3.30;;;2.00;;
50803;SDS011;37205;51.434;6.756;2022-08-01T14:34:58;6.55;;;2.15;;
50803;SDS011;37205;51.434;6.756;2022-08-01T14:37:24;4.00;;;2.38;;
50803;SDS011;37205;51.434;6.756;2022-08-01T14:39:50;3.97;;;2.30;;
50803;SDS011;37205;51.434;6.756;2022-08-01T14:42:15;4.75;;;2.22;;
50803;SDS011;37205;51.434;6.756;2022-08-01T14:44:41;3.28;;;1.80;;
50803;SDS011;37205;51.434;6.756;2022-08-01T14:47:07;5.40;;;2.35;;
50803;SDS011;37205;51.434;6.756;2022-08-01T14:49:32;4.10;;;1.92;;
50803;SDS011;37205;51.434;6.756;2022-08-01T14:51:58;3.15;;;1.85;;
50803;SDS011;37205;51.434;6.756;2022-08-01T14:54:23;3.88;;;2.22;;
50803;SDS011;37205;51.434;6.756;2022-08-01T14:56:49;5.72;;;2.10;;
50803;SDS011;37205;51.434;6.756;2022-08-01T14:59:16;4.10;;;2.22;;
50803;SDS011;37205;51.434;6.756;2022-08-01T15:01:42;3.22;;;1.90;;
50803;SDS011;37205;51.434;6.756;2022-08-01T15:04:07;3.53;;;1.92;;
50803;SDS011;37205;51.434;6.756;2022-08-01T15:06:33;3.05;;;1.80;;
50803;SDS011;37205;51.434;6.756;2022-08-01T15:08:58;5.13;;;2.50;;
50803;SDS011;37205;51.434;6.756;2022-08-01T15:11:24;4.55;;;2.10;;
50803;SDS011;37205;51.434;6.756;2022-08-01T15:13:49;3.45;;;1.70;;
50803;SDS011;37205;51.434;6.756;2022-08-01T15:16:35;3.58;;;1.95;;
50803;SDS011;37205;51.434;6.756;2022-08-01T15:19:00;2.92;;;1.60;;
50803;SDS011;37205;51.434;6.756;2022-08-01T15:21:26;3.05;;;1.50;;
50803;SDS011;37205;51.434;6.756;2022-08-01T15:23:51;2.95;;;1.20;;
50803;SDS011;37205;51.434;6.756;2022-08-01T15:26:17;2.75;;;1.33;;
50803;SDS011;37205;51.434;6.756;2022-08-01T15:28:43;3.00;;;1.40;;
50803;SDS011;37205;51.434;6.756;2022-08-01T15:31:08;3.78;;;1.20;;
50803;SDS011;37205;51.434;6.756;2022-08-01T15:33:34;2.55;;;1.40;;
50803;SDS011;37205;51.434;6.756;2022-08-01T15:36:00;5.97;;;1.80;;
50803;SDS011;37205;51.434;6.756;2022-08-01T15:38:26;3.40;;;1.65;;
50803;SDS011;37205;51.434;6.756;2022-08-01T15:40:51;2.55;;;1.40;;
50803;SDS011;37205;51.434;6.756;2022-08-01T15:43:17;3.03;;;1.50;;
50803;SDS011;37205;51.434;6.756;2022-08-01T15:45:45;3.03;;;1.33;;